Latest Coastal Weather Observations for Kalumburu

IDW60701

Issued at 10:52 am WST Tuesday 25 June 2024 (issued every 10 minutes, with the page automatically refreshed every 10 minutes)

About coastal observations | Map of coastal stations | Coastal observations for WA | Marine services | Other Formats
Station Details ID: 001019 Name: KALUMBURU Lat: -14.30 Lon: 126.65 Height: 23.0 m
Data from the previous 72 hours. | See also: Recent months at Kalumburu
Date/Time
WST
Wind Sea
Height
m
Swell Vis
km
Cloud Weather Temp
°C
Press
MSL
hPa
Rain since
9am
mm
Dir  Spd
kts
Gust
kts
Height
m
Period
s
Dir
25/10:30am ESE 5 8 - - - - - - - 27.7 1013.7 0.0
25/10:00am ESE 5 8 - - - - - - - 27.6 1014.0 0.0
25/09:30am SE 6 9 - - - - - - - 26.6 1014.2 0.0
25/09:00am S 4 8 - - - - - - - 24.4 1014.4 0.0
25/08:30am SSW 4 6 - - - - - - - 21.3 1014.4 0.0
25/08:00am S 4 6 - - - - - - - 19.3 1014.4 0.0
25/07:30am SSE 4 6 - - - - - - - 17.1 1014.2 0.0
25/07:00am S 3 4 - - - - - - - 15.3 1013.8 0.0
25/06:30am S 3 5 - - - - - - - 11.9 1013.3 0.0
25/06:00am SSE 2 5 - - - - - - - 11.0 1013.0 0.0
25/05:30am S 3 5 - - - - - - - 11.0 1012.9 0.0
25/05:00am CALM 0 3 - - - - - - - 11.4 1012.8 0.0
25/04:30am CALM 0 0 - - - - - - - 10.9 1012.6 0.0
25/04:00am CALM 0 0 - - - - - - - 11.1 1012.6 0.0
25/03:30am CALM 0 0 - - - - - - - 11.4 1012.7 0.0
25/03:00am CALM 0 0 - - - - - - - 11.5 1012.8 0.0
25/02:30am CALM 0 0 - - - - - - - 11.9 1012.9 0.0
25/02:00am CALM 0 0 - - - - - - - 12.5 1013.0 0.0
25/01:30am CALM 0 0 - - - - - - - 12.8 1013.2 0.0
25/01:00am CALM 0 0 - - - - - - - 12.8 1013.4 0.0
25/12:30am CALM 0 0 - - - - - - - 13.0 1013.7 0.0
25/12:00am SSW 1 3 - - - - - - - 13.6 1013.7 0.0
 
Date/Time
WST
Wind Sea
Height
m
Swell Vis
km
Cloud Weather Temp
°C
Press
MSL
hPa
Rain since
9am
mm
Dir  Spd
kts
Gust
kts
Height
m
Period
s
Dir
24/11:30pm CALM 0 0 - - - - - - - 13.7 1013.8 0.0
24/11:00pm SSW 3 5 - - - - - - - 14.0 1013.7 0.0
24/10:30pm CALM 0 0 - - - - - - - 14.8 1013.6 0.0
24/10:00pm CALM 0 0 - - - - - - - 14.9 1013.5 0.0
24/09:30pm CALM 0 0 - - - - - - - 15.0 1013.8 0.0
24/09:00pm CALM 0 0 - - - - - - - 15.6 1013.9 0.0
24/08:30pm CALM 0 3 - - - - - - - 16.2 1013.6 0.0
24/08:00pm ESE 1 4 - - - - - - - 17.1 1013.3 0.0
24/07:30pm CALM 0 0 - - - - - - - 17.7 1013.0 0.0
24/07:00pm CALM 0 0 - - - - - - - 19.8 1012.6 0.0
24/06:30pm CALM 0 0 - - - - - - - 21.6 1012.4 0.0
24/06:00pm N 6 10 - - - - - - - 23.6 1011.8 0.0
24/05:30pm N 5 7 - - - - - - - 23.7 1011.5 0.0
24/05:00pm S 2 3 - - - - - - - 24.6 1011.2 0.0
24/04:30pm SSE 3 4 - - - - - - - 27.8 1010.9 0.0
24/04:00pm S 3 5 - - - - - - - 29.3 1010.6 0.0
24/03:30pm SSW 2 3 - - - - - - - 30.1 1010.6 0.0
24/03:00pm SSW 5 9 - - - - - - - 29.6 1010.7 0.0
24/02:30pm S 5 8 - - - - - - - 29.9 1010.9 0.0
24/02:00pm SSW 5 8 - - - - - - - 29.7 1011.0 0.0
24/01:30pm SE 3 6 - - - - - - - 30.5 1011.2 0.0
24/01:00pm SSW 5 8 - - - - - - - 29.6 1011.7 0.0
24/12:30pm SSE 5 8 - - - - - - - 29.5 1012.2 0.0
24/12:00pm SSE 5 9 - - - - - - - 29.0 1012.7 0.0
24/11:30am ESE 5 8 - - - - - - - 29.2 1013.4 0.0
24/11:00am S 6 13 - - - - - - - 27.9 1014.1 0.0
24/10:30am SSE 7 13 - - - - - - - 27.1 1014.7 0.0
24/10:00am SE 8 13 - - - - - - - 26.4 1015.1 0.0
24/09:30am SSE 6 10 - - - - - - - 26.1 1015.5 0.0
24/09:00am S 7 11 - - - - - - - 24.6 1015.8 0.0
24/08:30am S 6 11 - - - - - - - 23.4 1016.0 0.0
24/08:00am S 5 11 - - - - - - - 22.8 1015.8 0.0
24/07:30am SW 4 6 - - - - - - - 21.1 1015.5 0.0
24/07:00am WSW 4 6 - - - - - - - 19.5 1014.9 0.0
24/06:30am SSW 4 6 - - - - - - - 17.5 1014.6 0.0
24/06:00am SW 3 4 - - - - - - - 15.6 1014.3 0.0
24/05:30am SW 4 6 - - - - - - - 17.4 1014.2 0.0
24/05:00am SW 4 6 - - - - - - - 16.4 1013.9 0.0
24/04:30am SSW 4 6 - - - - - - - 16.8 1013.8 0.0
24/04:00am SW 4 6 - - - - - - - 17.0 1013.7 0.0
24/03:30am SW 4 6 - - - - - - - 17.3 1013.8 0.0
24/03:00am SSW 4 6 - - - - - - - 17.2 1013.7 0.0
24/02:30am SSW 4 7 - - - - - - - 18.5 1013.7 0.0
24/02:00am SSW 5 6 - - - - - - - 17.5 1014.0 0.0
24/01:30am SSW 4 5 - - - - - - - 17.0 1014.1 0.0
24/01:00am SW 4 5 - - - - - - - 14.7 1014.2 0.0
24/12:30am S 2 4 - - - - - - - 15.2 1014.5 0.0
24/12:00am S 2 5 - - - - - - - 15.6 1014.6 0.0
 
Date/Time
WST
Wind Sea
Height
m
Swell Vis
km
Cloud Weather Temp
°C
Press
MSL
hPa
Rain since
9am
mm
Dir  Spd
kts
Gust
kts
Height
m
Period
s
Dir
23/11:30pm WSW 4 6 - - - - - - - 14.8 1014.6 0.0
23/11:00pm SW 1 4 - - - - - - - 14.8 1014.5 0.0
23/10:30pm SW 1 4 - - - - - - - 16.3 1014.4 0.0
23/10:00pm CALM 0 0 - - - - - - - 16.1 1014.5 0.0
23/09:30pm CALM 0 0 - - - - - - - 17.4 1014.5 0.0
23/09:00pm N 2 4 - - - - - - - 16.9 1014.6 0.0
23/08:30pm CALM 0 0 - - - - - - - 17.8 1014.5 0.0
23/08:00pm CALM 0 0 - - - - - - - 18.6 1014.4 0.0
23/07:30pm CALM 0 0 - - - - - - - 18.6 1014.1 0.0
23/07:00pm CALM 0 0 - - - - - - - 18.8 1013.8 0.0
23/06:30pm E 2 4 - - - - - - - 19.3 1013.5 0.0
23/06:00pm ESE 1 3 - - - - - - - 21.4 1013.2 0.0
23/05:30pm CALM 0 3 - - - - - - - 22.9 1012.9 0.0
23/05:00pm S 3 5 - - - - - - - 25.9 1012.6 0.0
23/04:30pm SSE 5 7 - - - - - - - 28.5 1012.5 0.0
23/04:00pm S 5 9 - - - - - - - 29.4 1012.5 0.0
23/03:30pm SE 5 9 - - - - - - - 30.1 1012.3 0.0
23/03:00pm SSE 5 8 - - - - - - - 30.5 1012.3 0.0
23/02:30pm SSE 6 12 - - - - - - - 30.3 1012.5 0.0
23/02:00pm SSE 7 10 - - - - - - - 30.2 1012.6 0.0
23/01:30pm SSE 6 11 - - - - - - - 30.2 1012.8 0.0
23/01:00pm SE 6 10 - - - - - - - 30.5 1013.5 0.0
23/12:30pm E 6 11 - - - - - - - 30.2 1013.9 0.0
23/12:00pm SE 8 13 - - - - - - - 29.5 1014.5 0.0
23/11:30am ESE 7 10 - - - - - - - 29.1 1014.8 0.0
23/11:00am SE 7 11 - - - - - - - 29.1 1015.2 0.0
23/10:30am SSE 7 10 - - - - - - - 27.7 1016.0 0.0
23/10:00am SSE 6 11 - - - - - - - 26.9 1016.6 0.0
23/09:30am SE 7 11 - - - - - - - 25.8 1017.0 0.0
23/09:00am SE 7 11 - - - - - - - 25.0 1017.4 0.0
23/08:30am SE 7 16 - - - - - - - 24.0 1017.6 0.0
23/08:00am SSE 3 10 - - - - - - - 23.8 1017.4 0.0
23/07:30am SSE 7 13 - - - - - - - 22.3 1017.1 0.0
23/07:00am S 6 11 - - - - - - - 21.3 1016.8 0.0
23/06:30am SSW 5 9 - - - - - - - 19.7 1016.3 0.0
23/06:00am SSW 5 8 - - - - - - - 19.7 1016.1 0.0
23/05:30am S 5 8 - - - - - - - 20.1 1016.0 0.0
23/05:00am S 4 6 - - - - - - - 19.8 1015.7 0.0
23/04:30am S 1 4 - - - - - - - 17.7 1015.6 0.0
23/04:00am SE 3 5 - - - - - - - 18.6 1015.4 0.0
23/03:30am CALM 0 4 - - - - - - - 15.5 1015.3 0.0
23/03:00am CALM 0 3 - - - - - - - 14.7 1015.2 0.0
23/02:30am CALM 0 0 - - - - - - - 14.1 1015.2 0.0
23/02:00am CALM 0 0 - - - - - - - 14.2 1015.4 0.0
23/01:30am WSW 3 5 - - - - - - - 14.5 1015.7 0.0
23/01:00am CALM 0 0 - - - - - - - 15.0 1016.0 0.0
23/12:30am CALM 0 0 - - - - - - - 14.6 1016.1 0.0
23/12:00am SE 1 3 - - - - - - - 16.1 1016.1 0.0
 
Date/Time
WST
Wind Sea
Height
m
Swell Vis
km
Cloud Weather Temp
°C
Press
MSL
hPa
Rain since
9am
mm
Dir  Spd
kts
Gust
kts
Height
m
Period
s
Dir
22/11:30pm CALM 0 0 - - - - - - - 16.6 1016.2 0.0
22/11:00pm E 3 4 - - - - - - - 17.8 1016.2 0.0
22/10:30pm ESE 3 4 - - - - - - - 17.4 1016.1 0.0
22/10:00pm ESE 2 4 - - - - - - - 17.1 1016.2 0.0
22/09:30pm SE 3 4 - - - - - - - 17.8 1016.2 0.0
22/09:00pm SE 3 4 - - - - - - - 17.7 1016.1 0.0
22/08:30pm E 2 4 - - - - - - - 18.9 1016.1 0.0
22/08:00pm ESE 3 4 - - - - - - - 18.9 1015.8 0.0
22/07:30pm E 3 4 - - - - - - - 18.3 1015.4 0.0
22/07:00pm ESE 3 4 - - - - - - - 19.9 1015.2 0.0
22/06:30pm SE 1 3 - - - - - - - 20.2 1014.6 0.0
22/06:00pm SE 3 4 - - - - - - - 22.5 1014.3 0.0
22/05:30pm SE 2 4 - - - - - - - 24.0 1014.1 0.0
22/05:00pm E 3 5 - - - - - - - 27.2 1013.6 0.0
22/04:30pm ESE 5 8 - - - - - - - 29.1 1013.4 0.0
22/04:00pm ESE 7 11 - - - - - - - 29.9 1013.2 0.0
22/03:30pm E 8 11 - - - - - - - 30.3 1013.2 0.0
22/03:00pm SE 8 15 - - - - - - - 30.3 1013.2 0.0
22/02:30pm SE 8 15 - - - - - - - 30.7 1013.3 0.0
22/02:00pm ESE 7 11 - - - - - - - 31.0 1013.4 0.0
22/01:30pm E 7 9 - - - - - - - 31.2 1013.7 0.0
22/01:00pm SE 8 13 - - - - - - - 30.6 1014.0 0.0
22/12:30pm E 7 14 - - - - - - - 30.7 1014.6 0.0
22/12:00pm SE 7 14 - - - - - - - 30.2 1015.4 0.0
22/11:30am ESE 9 16 - - - - - - - 29.2 1015.9 0.0
22/11:00am ESE 9 13 - - - - - - - 29.4 1016.5 0.0

Other formats

Comma delimited format used in spreadsheet applications
http://www.bom.gov.au/fwo/IDW60701/IDW60701.94100.axf

JavaScript Object Notation format (JSON) in row-major order
http://www.bom.gov.au/fwo/IDW60701/IDW60701.94100.json

Data quality

Most of these data are generated automatically and are frequently updated. Quality checks on data are not normally performed. It is possible for incorrect values to appear. Refer to information at About Latest Weather Observations and please check the disclaimer before using these data.